New Harbor, Maine
Current Conditions -  °F | °C
As of 12:53 AM on Thursday 27 Nov 2014 (Local Time) from KIWI Reporting Station
Light Snow Light Snow  
Wind Chill: 25°   Ceiling: 1200
Heat Index: 32°   Visibility: 1.2mi
Dew Point: 30°   Wind: 8mph
Humidity: 92%   Direction: 360°N
Pressure: 29.71"   Gusts: 28mph
Location:  43.88°N, 69.49°W
Report Text: KIWI 270553Z AUTO 36007G24KT 290V080 1 1/4SM -SN BR SCT009 OVC012 00/M01 A2971 RMK AO2 SLP060 P0005 60048 T00001011 10006 20000 56033
Loading
Personal Weather Stations






























Interactive Weather Map New forecast layout! Learn more

10-Day Weather Forecast

Advertisements
Track Severe Weather on mobile